Time;durP1;ratioP1;P1;durP2;ratioP2;P2;SDS_P1;SDS_P2;PMS_P1;PMS_P2;Temp;Humidity;BMP_temperature;BMP_pressure;BME280_temperature;BME280_humidity;BME280_pressure;Samples;Min_cycle;Max_cycle;Signal;HPM_P1;HPM_P2
2022/07/01 00:01:38;;;;;;;0.88;0.15;;;15.40;99.90;;;;;;4996835;28;20128;-44
2022/07/01 00:04:04;;;;;;;0.30;0.10;;;15.40;99.90;;;;;;5004814;28;20463;-43
2022/07/01 00:06:30;;;;;;;1.38;0.30;;;15.50;99.90;;;;;;5000824;28;20033;-43
2022/07/01 00:08:56;;;;;;;0.50;0.20;;;15.50;99.90;;;;;;5002406;28;20049;-43
2022/07/01 00:11:21;;;;;;;1.15;0.30;;;15.50;99.90;;;;;;5002522;28;20049;-43
2022/07/01 00:13:47;;;;;;;0.52;0.20;;;15.50;99.90;;;;;;5002200;28;20116;-43
2022/07/01 00:16:13;;;;;;;0.98;0.30;;;15.50;99.90;;;;;;5002749;28;20049;-44
2022/07/01 00:18:39;;;;;;;0.40;0.20;;;15.50;99.90;;;;;;5004377;28;20184;-44
2022/07/01 00:21:04;;;;;;;0.43;0.20;;;15.50;99.90;;;;;;4999284;28;20042;-43
2022/07/01 00:23:31;;;;;;;1.70;0.35;;;15.50;99.90;;;;;;5002580;28;20044;-43
2022/07/01 00:25:57;;;;;;;0.60;0.25;;;15.50;99.90;;;;;;5002696;28;20054;-42
2022/07/01 00:28:22;;;;;;;0.63;0.40;;;15.50;99.90;;;;;;5001675;28;20134;-43
2022/07/01 00:30:48;;;;;;;1.42;0.38;;;15.50;99.90;;;;;;5005355;28;20181;-45
2022/07/01 00:33:14;;;;;;;0.85;0.30;;;15.50;99.90;;;;;;5003324;28;20038;-43
2022/07/01 00:35:40;;;;;;;0.90;0.40;;;15.50;99.90;;;;;;5005465;28;20057;-44
2022/07/01 00:38:05;;;;;;;2.92;1.00;;;15.50;99.90;;;;;;5000708;28;20041;-46
2022/07/01 00:40:31;;;;;;;5.63;3.65;;;15.50;99.90;;;;;;5004608;28;20481;-45
2022/07/01 00:42:57;;;;;;;7.60;4.45;;;15.60;99.90;;;;;;5001855;28;20116;-44
2022/07/01 00:45:22;;;;;;;9.00;5.80;;;15.60;99.90;;;;;;4989953;28;20046;-46
2022/07/01 00:47:50;;;;;;;10.27;7.10;;;15.60;99.90;;;;;;5003491;28;20653;-44
2022/07/01 00:50:16;;;;;;;9.88;7.38;;;15.60;99.90;;;;;;5005617;28;20054;-43
2022/07/01 00:52:43;;;;;;;13.05;8.35;;;15.60;99.90;;;;;;5004689;28;20053;-45
2022/07/01 00:55:11;;;;;;;12.38;8.27;;;15.60;99.90;;;;;;5008187;28;20116;-44
2022/07/01 00:57:39;;;;;;;10.70;7.40;;;15.50;99.90;;;;;;5008090;28;20044;-44
2022/07/01 01:00:09;;;;;;;9.98;7.72;;;15.50;99.90;;;;;;5007000;28;20065;-46
2022/07/01 01:02:35;;;;;;;9.45;6.32;;;15.50;99.90;;;;;;5007528;28;20057;-46
2022/07/01 01:05:03;;;;;;;12.15;7.32;;;15.40;99.90;;;;;;5004852;28;20034;-45
2022/07/01 01:07:29;;;;;;;8.95;6.25;;;15.50;99.90;;;;;;5005713;28;20603;-45
2022/07/01 01:09:55;;;;;;;9.90;6.25;;;15.40;99.90;;;;;;5005480;28;20073;-47
2022/07/01 01:12:21;;;;;;;9.63;6.10;;;15.40;99.90;;;;;;5008569;28;20100;-44
2022/07/01 01:14:48;;;;;;;9.80;6.05;;;15.40;99.90;;;;;;4987607;28;20124;-47
2022/07/01 01:17:15;;;;;;;9.48;5.65;;;15.40;99.90;;;;;;5007341;28;20406;-43
2022/07/01 01:19:42;;;;;;;9.40;5.53;;;15.30;99.90;;;;;;5006834;28;20124;-45
2022/07/01 01:22:09;;;;;;;9.50;5.47;;;15.30;99.90;;;;;;4989342;28;20046;-46
2022/07/01 01:24:38;;;;;;;8.23;5.50;;;15.30;99.90;;;;;;5004593;28;20053;-48
2022/07/01 01:27:07;;;;;;;8.65;5.43;;;15.30;99.90;;;;;;5006494;28;20042;-46
2022/07/01 01:29:35;;;;;;;8.73;4.97;;;15.30;99.90;;;;;;5004876;28;20125;-45
2022/07/01 01:32:02;;;;;;;7.15;4.55;;;15.30;99.90;;;;;;5005765;28;20034;-42
2022/07/01 01:34:28;;;;;;;9.15;5.18;;;15.30;99.90;;;;;;5009410;28;20491;-49
2022/07/01 01:36:53;;;;;;;8.02;4.88;;;15.30;99.90;;;;;;5004762;28;20126;-44
2022/07/01 01:39:19;;;;;;;6.60;4.30;;;15.30;99.90;;;;;;5002824;28;20540;-46
2022/07/01 01:41:45;;;;;;;8.35;4.70;;;15.20;99.90;;;;;;5008284;28;20042;-45
2022/07/01 01:44:11;;;;;;;7.90;4.15;;;15.20;99.90;;;;;;5005716;28;20083;-45
2022/07/01 01:46:38;;;;;;;9.43;4.75;;;15.20;99.90;;;;;;5007663;28;20108;-44
2022/07/01 01:49:05;;;;;;;7.63;4.22;;;15.20;99.90;;;;;;5005240;28;20351;-44
2022/07/01 01:51:30;;;;;;;7.07;4.25;;;15.20;99.90;;;;;;5003628;28;20407;-45
2022/07/01 01:53:57;;;;;;;7.93;4.20;;;15.20;99.90;;;;;;5006606;28;20041;-46
2022/07/01 01:56:23;;;;;;;6.45;3.70;;;15.20;99.90;;;;;;5006711;28;20038;-47
2022/07/01 01:58:49;;;;;;;6.00;3.55;;;15.20;99.90;;;;;;5006237;28;20131;-46
2022/07/01 02:01:17;;;;;;;7.10;3.58;;;15.20;99.90;;;;;;5007294;28;20495;-46
2022/07/01 02:03:44;;;;;;;5.10;3.15;;;15.20;99.90;;;;;;5003606;28;20509;-51
2022/07/01 02:06:11;;;;;;;4.82;3.20;;;15.20;99.90;;;;;;5007925;28;20037;-43
2022/07/01 02:08:40;;;;;;;7.20;3.50;;;15.10;99.90;;;;;;5009052;28;20418;-44
2022/07/01 02:11:06;;;;;;;4.90;3.10;;;15.10;99.90;;;;;;5003665;28;20052;-45
2022/07/01 02:13:32;;;;;;;5.70;3.38;;;15.00;99.90;;;;;;5006074;28;20057;-43
2022/07/01 02:15:58;;;;;;;6.60;4.18;;;15.00;99.90;;;;;;5004689;28;20037;-49
2022/07/01 02:18:24;;;;;;;8.00;4.20;;;15.00;99.90;;;;;;5004284;28;20129;-43
2022/07/01 02:20:50;;;;;;;7.28;3.80;;;15.00;99.90;;;;;;5005789;28;20053;-47
2022/07/01 02:23:17;;;;;;;6.55;3.72;;;15.00;99.90;;;;;;5005086;28;20042;-46
2022/07/01 02:25:42;;;;;;;7.07;3.42;;;15.00;99.90;;;;;;5007067;28;20026;-45
2022/07/01 02:28:09;;;;;;;7.80;4.05;;;14.90;99.90;;;;;;5004695;28;20042;-44
2022/07/01 02:30:38;;;;;;;9.52;4.43;;;15.00;99.90;;;;;;5005847;28;20058;-49
2022/07/01 02:33:07;;;;;;;7.60;4.68;;;15.00;99.90;;;;;;5005144;28;20092;-44
2022/07/01 02:35:33;;;;;;;8.13;4.65;;;14.90;99.90;;;;;;5006680;28;20141;-44
2022/07/01 02:37:59;;;;;;;8.55;4.65;;;14.90;99.90;;;;;;5008041;28;20100;-43
2022/07/01 02:40:25;;;;;;;9.95;5.20;;;14.90;99.90;;;;;;5007862;28;20042;-43
2022/07/01 02:42:51;;;;;;;7.32;4.85;;;14.90;99.90;;;;;;5005236;28;20026;-44
2022/07/01 02:45:16;;;;;;;11.10;5.85;;;14.90;99.90;;;;;;5005690;28;20733;-45
2022/07/01 02:47:42;;;;;;;9.35;6.70;;;14.90;99.90;;;;;;5007332;28;20116;-48
2022/07/01 02:50:10;;;;;;;10.70;7.13;;;14.80;99.90;;;;;;5007955;28;20466;-44
2022/07/01 02:52:37;;;;;;;18.33;8.27;;;14.80;99.90;;;;;;5001949;28;20460;-48
2022/07/01 02:55:05;;;;;;;14.05;7.85;;;14.80;99.90;;;;;;5005783;28;20121;-43
2022/07/01 02:57:30;;;;;;;10.48;7.32;;;14.80;99.90;;;;;;4981284;28;20061;-41
2022/07/01 02:59:57;;;;;;;13.27;8.18;;;14.70;99.90;;;;;;5005044;28;20054;-45
2022/07/01 03:02:23;;;;;;;14.23;8.65;;;14.70;99.90;;;;;;4984233;28;20053;-45
2022/07/01 03:04:50;;;;;;;13.00;8.50;;;14.70;99.90;;;;;;5001191;28;20441;-46
2022/07/01 03:07:16;;;;;;;15.38;9.50;;;14.70;99.90;;;;;;4997594;28;20046;-46
2022/07/01 03:09:43;;;;;;;16.17;10.48;;;14.70;99.90;;;;;;5006156;28;20072;-47
2022/07/01 03:12:24;;;;;;;16.02;9.15;;;14.70;99.90;;;;;;4985515;28;20042;-48
2022/07/01 03:15:00;;;;;;;15.48;10.32;;;14.70;99.90;;;;;;5001985;28;20042;-47
2022/07/01 03:17:27;;;;;;;16.20;10.85;;;14.70;99.90;;;;;;5005598;28;20046;-47
2022/07/01 03:19:53;;;;;;;18.98;12.38;;;14.60;99.90;;;;;;5005561;28;20034;-44
2022/07/01 03:22:20;;;;;;;18.77;12.20;;;14.60;99.90;;;;;;5002373;28;20033;-46
2022/07/01 03:24:47;;;;;;;18.63;12.02;;;14.60;99.90;;;;;;5003205;28;20056;-47
2022/07/01 03:27:13;;;;;;;17.92;11.13;;;14.60;99.90;;;;;;5003017;28;20041;-43
2022/07/01 03:29:39;;;;;;;17.00;11.48;;;14.50;99.90;;;;;;5004758;28;20049;-46
2022/07/01 03:32:05;;;;;;;16.77;10.65;;;14.50;99.90;;;;;;5005703;28;20034;-47
2022/07/01 03:34:31;;;;;;;17.42;11.35;;;14.50;99.90;;;;;;4985958;28;20125;-45
2022/07/01 03:36:57;;;;;;;19.20;11.88;;;14.50;99.90;;;;;;5000386;28;20113;-47
2022/07/01 03:39:22;;;;;;;12.40;9.25;;;14.50;99.90;;;;;;5003256;28;20390;-45
2022/07/01 03:41:48;;;;;;;15.98;10.77;;;14.50;99.90;;;;;;5005615;28;20482;-44
2022/07/01 03:44:14;;;;;;;17.23;10.93;;;14.50;99.90;;;;;;5004454;28;20107;-46
2022/07/01 03:46:40;;;;;;;16.23;10.90;;;14.60;99.90;;;;;;5002048;28;20038;-45
2022/07/01 03:49:05;;;;;;;16.17;10.73;;;14.50;99.90;;;;;;5000537;28;20083;-48
2022/07/01 03:51:31;;;;;;;17.33;10.32;;;14.50;99.90;;;;;;5002548;28;20037;-45
2022/07/01 03:56:41;;;;;;;15.88;9.98;;;14.60;99.90;;;;;;5000781;28;20418;-45
2022/07/01 03:59:07;;;;;;;17.75;10.80;;;14.60;99.90;;;;;;5004648;28;20048;-46
2022/07/01 04:01:33;;;;;;;19.17;11.38;;;14.60;99.90;;;;;;5003148;28;20058;-45
2022/07/01 04:03:58;;;;;;;19.95;11.30;;;14.60;99.90;;;;;;5003557;28;20048;-50
2022/07/01 04:06:24;;;;;;;15.32;11.00;;;14.60;99.90;;;;;;5001674;28;20038;-47
2022/07/01 04:08:50;;;;;;;20.08;12.50;;;14.60;99.90;;;;;;4989749;28;20502;-44
2022/07/01 04:11:16;;;;;;;23.10;12.18;;;14.50;99.90;;;;;;5000935;28;20133;-46
2022/07/01 04:13:49;;;;;;;20.63;13.48;;;14.50;99.90;;;;;;4988790;28;20038;-47
2022/07/01 04:16:19;;;;;;;20.33;12.40;;;14.50;99.90;;;;;;5003866;28;20049;-49
2022/07/01 04:18:46;;;;;;;22.77;13.57;;;14.50;99.90;;;;;;5003462;28;20052;-43
2022/07/01 04:23:56;;;;;;;22.63;14.27;;;14.40;99.90;;;;;;5000245;28;20522;-47
2022/07/01 04:26:25;;;;;;;20.55;13.88;;;14.40;99.90;;;;;;4995416;28;20076;-46
2022/07/01 04:28:52;;;;;;;25.63;15.25;;;14.40;99.90;;;;;;5001888;28;20120;-43
2022/07/01 04:31:18;;;;;;;19.85;13.90;;;14.40;99.90;;;;;;5004834;28;20140;-47
2022/07/01 04:33:45;;;;;;;24.63;14.90;;;14.40;99.90;;;;;;5004644;28;20038;-46
2022/07/01 04:36:11;;;;;;;20.38;13.90;;;14.40;99.90;;;;;;5001629;28;20053;-45
2022/07/01 04:38:37;;;;;;;18.45;12.95;;;14.40;99.90;;;;;;5004666;28;20419;-43
2022/07/01 04:43:46;;;;;;;22.10;13.60;;;14.40;99.90;;;;;;5002263;28;20135;-46
2022/07/01 04:46:12;;;;;;;17.38;12.25;;;14.40;99.90;;;;;;5003349;28;20506;-45
2022/07/01 04:48:38;;;;;;;17.40;11.18;;;14.40;99.90;;;;;;5003380;28;20037;-48
2022/07/01 04:51:04;;;;;;;21.13;12.95;;;14.40;99.90;;;;;;5005341;28;20048;-45
2022/07/01 04:53:29;;;;;;;21.63;13.70;;;14.40;99.90;;;;;;5003436;28;20092;-47
2022/07/01 04:55:55;;;;;;;18.35;12.07;;;14.40;99.90;;;;;;4999057;28;20108;-45
2022/07/01 04:58:20;;;;;;;17.63;12.98;;;14.40;99.90;;;;;;5002282;28;20783;-47
2022/07/01 05:00:48;;;;;;;20.13;13.35;;;14.40;99.90;;;;;;5005108;28;20471;-48
2022/07/01 05:03:14;;;;;;;18.50;11.98;;;14.40;99.90;;;;;;5001404;28;20521;-48
2022/07/01 05:05:40;;;;;;;22.17;13.05;;;14.40;99.90;;;;;;5003902;28;20044;-46
2022/07/01 05:08:06;;;;;;;23.00;11.93;;;14.40;99.90;;;;;;5004161;28;20046;-49
2022/07/01 05:10:31;;;;;;;22.80;13.27;;;14.40;99.90;;;;;;5001778;28;20044;-43
2022/07/01 05:12:57;;;;;;;19.08;13.68;;;14.40;99.90;;;;;;5000356;28;20382;-50
2022/07/01 05:15:23;;;;;;;17.75;12.77;;;14.40;99.90;;;;;;5001556;28;20478;-46
2022/07/01 05:23:17;;;;;;;18.52;12.57;;;14.50;99.90;;;;;;5000487;28;20042;-45
2022/07/01 05:25:42;;;;;;;20.67;12.82;;;14.50;99.90;;;;;;5002824;28;20144;-48
2022/07/01 05:28:08;;;;;;;19.20;12.85;;;14.50;99.90;;;;;;5004200;28;20316;-45
2022/07/01 05:30:34;;;;;;;23.20;13.43;;;14.50;99.90;;;;;;5001496;28;20038;-47
2022/07/01 05:32:59;;;;;;;18.95;12.98;;;14.50;99.90;;;;;;5004219;28;20486;-48
2022/07/01 05:35:25;;;;;;;18.30;12.38;;;14.50;99.90;;;;;;5002929;28;20033;-44
2022/07/01 05:37:51;;;;;;;18.88;12.48;;;14.50;99.90;;;;;;5000557;28;20065;-45
2022/07/01 05:40:17;;;;;;;17.67;12.65;;;14.50;99.90;;;;;;5002561;28;20124;-44
2022/07/01 05:42:42;;;;;;;20.30;12.45;;;14.60;99.90;;;;;;5006497;28;20041;-45
2022/07/01 05:45:08;;;;;;;16.88;12.10;;;14.60;99.90;;;;;;5005960;28;20399;-45
2022/07/01 05:47:34;;;;;;;19.23;11.85;;;14.60;99.90;;;;;;5005124;28;20050;-45
2022/07/01 05:50:00;;;;;;;18.95;11.60;;;14.60;99.90;;;;;;5009638;28;20049;-46
2022/07/01 05:52:26;;;;;;;17.35;12.00;;;14.60;99.90;;;;;;5004408;28;20521;-46
2022/07/01 05:54:51;;;;;;;17.15;11.32;;;14.60;99.90;;;;;;5008117;28;20378;-43
2022/07/01 05:57:17;;;;;;;17.25;11.20;;;14.60;99.90;;;;;;5003199;28;20121;-47
2022/07/01 05:59:43;;;;;;;17.17;11.20;;;14.60;99.90;;;;;;5005948;28;20495;-45
2022/07/01 06:02:08;;;;;;;16.45;11.98;;;14.60;99.90;;;;;;4984269;28;20042;-49
2022/07/01 06:04:34;;;;;;;18.98;11.82;;;14.60;99.90;;;;;;5007088;28;20049;-48
2022/07/01 06:07:00;;;;;;;17.58;11.75;;;14.60;99.90;;;;;;5009105;28;20038;-46
2022/07/01 06:09:25;;;;;;;18.48;12.43;;;14.70;99.90;;;;;;5007494;28;20042;-45
2022/07/01 06:11:51;;;;;;;17.27;12.55;;;14.60;99.90;;;;;;5006871;28;20046;-45
2022/07/01 06:14:17;;;;;;;19.80;12.25;;;14.70;99.90;;;;;;5003137;28;20041;-48
2022/07/01 06:16:42;;;;;;;20.95;12.68;;;14.60;99.90;;;;;;5007320;28;20045;-49
2022/07/01 06:19:08;;;;;;;18.23;12.68;;;14.60;99.90;;;;;;5006628;28;20402;-45
2022/07/01 06:21:34;;;;;;;20.50;12.52;;;14.60;99.90;;;;;;5007461;28;20112;-44
2022/07/01 06:24:00;;;;;;;17.80;12.43;;;14.70;99.90;;;;;;4990580;28;20050;-49
2022/07/01 06:26:25;;;;;;;17.85;12.40;;;14.70;99.90;;;;;;5007022;28;20041;-45
2022/07/01 06:28:51;;;;;;;17.92;12.55;;;14.70;99.90;;;;;;5010371;28;20034;-45
2022/07/01 06:31:17;;;;;;;17.73;11.90;;;14.80;99.90;;;;;;5009125;28;20179;-43
2022/07/01 06:33:43;;;;;;;18.75;13.10;;;14.80;99.90;;;;;;5004913;28;20479;-45
2022/07/01 06:36:08;;;;;;;17.23;11.82;;;14.90;99.90;;;;;;5004745;28;20336;-45
2022/07/01 06:38:34;;;;;;;18.63;11.52;;;14.90;99.90;;;;;;5009785;28;20503;-43
2022/07/01 06:43:44;;;;;;;19.10;12.40;;;14.90;99.90;;;;;;5004168;28;20049;-44
2022/07/01 06:46:10;;;;;;;19.60;11.98;;;14.90;99.90;;;;;;5002485;28;20087;-46
2022/07/01 06:48:36;;;;;;;17.90;12.88;;;15.00;99.90;;;;;;5002439;28;20117;-45
2022/07/01 06:51:03;;;;;;;17.40;11.30;;;15.10;99.90;;;;;;5008871;28;20144;-49
2022/07/01 06:53:29;;;;;;;17.38;12.07;;;15.20;99.90;;;;;;5005999;28;20151;-47
2022/07/01 06:55:54;;;;;;;19.25;12.32;;;15.20;99.90;;;;;;5008015;28;20054;-43
2022/07/01 06:58:20;;;;;;;16.95;11.85;;;15.20;99.90;;;;;;5004249;28;20050;-45
2022/07/01 07:00:46;;;;;;;16.85;12.25;;;15.30;99.90;;;;;;4986084;28;20089;-45
2022/07/01 07:03:11;;;;;;;17.23;11.80;;;15.30;99.90;;;;;;5006096;28;21662;-49
2022/07/01 07:05:37;;;;;;;21.00;12.50;;;15.30;99.90;;;;;;5008287;28;20030;-46
2022/07/01 07:08:03;;;;;;;21.63;12.75;;;15.40;99.90;;;;;;5003723;28;20044;-45
2022/07/01 07:10:29;;;;;;;18.98;10.93;;;15.40;99.90;;;;;;5005095;28;20045;-45
2022/07/01 07:12:55;;;;;;;17.52;11.93;;;15.40;99.90;;;;;;5002354;28;20041;-43
2022/07/01 07:15:21;;;;;;;18.20;12.40;;;15.40;99.90;;;;;;5001111;28;20038;-46
2022/07/01 07:17:46;;;;;;;17.30;12.45;;;15.50;99.90;;;;;;4989057;28;20041;-44
2022/07/01 07:20:12;;;;;;;17.25;11.82;;;15.50;99.90;;;;;;5008057;28;20439;-47
2022/07/01 07:22:38;;;;;;;16.75;11.90;;;15.50;99.90;;;;;;5002331;28;20456;-48
2022/07/01 07:25:04;;;;;;;17.00;11.55;;;15.50;99.90;;;;;;5000389;28;20030;-48
2022/07/01 07:27:29;;;;;;;17.52;11.52;;;15.60;99.90;;;;;;4952513;28;20065;-46
2022/07/01 07:29:55;;;;;;;15.65;11.85;;;15.70;99.90;;;;;;5002505;28;20041;-43
2022/07/01 07:32:21;;;;;;;19.33;11.90;;;15.90;99.90;;;;;;4981336;28;20136;-45
2022/07/01 07:34:46;;;;;;;20.88;12.27;;;16.10;99.90;;;;;;4988827;28;20112;-43
2022/07/01 07:37:12;;;;;;;18.88;12.38;;;16.30;99.90;;;;;;5005375;28;20133;-46
2022/07/01 07:39:38;;;;;;;16.42;12.00;;;16.50;99.90;;;;;;5006514;28;20033;-46
2022/07/01 07:42:05;;;;;;;17.70;11.82;;;16.80;99.90;;;;;;5004368;28;20073;-47
2022/07/01 07:44:31;;;;;;;15.93;11.02;;;16.80;99.90;;;;;;4989561;28;20038;-44
2022/07/01 07:46:57;;;;;;;15.90;10.32;;;16.80;99.90;;;;;;5006325;28;20042;-45
2022/07/01 07:49:23;;;;;;;18.10;12.63;;;16.80;99.90;;;;;;5004930;28;20026;-44
2022/07/01 07:51:49;;;;;;;19.48;11.80;;;16.70;99.90;;;;;;4987795;28;20041;-48
2022/07/01 07:54:15;;;;;;;19.25;11.82;;;16.60;99.90;;;;;;5001824;28;20048;-44
2022/07/01 07:56:41;;;;;;;20.77;11.77;;;16.60;99.90;;;;;;5002496;28;20045;-45
2022/07/01 07:59:07;;;;;;;17.20;11.07;;;16.70;99.90;;;;;;5002031;28;20049;-45
2022/07/01 08:01:33;;;;;;;17.83;11.65;;;16.70;99.90;;;;;;4999574;28;20090;-46
2022/07/01 08:03:59;;;;;;;18.77;11.57;;;16.70;99.90;;;;;;5004671;28;20052;-45
2022/07/01 08:06:25;;;;;;;18.88;13.07;;;16.70;99.90;;;;;;5005936;28;20136;-43
2022/07/01 08:08:50;;;;;;;18.63;12.07;;;16.70;99.90;;;;;;5005121;28;20057;-47
2022/07/01 08:11:17;;;;;;;19.42;12.73;;;16.80;99.90;;;;;;5002493;28;20052;-44
2022/07/01 08:13:43;;;;;;;19.40;12.02;;;16.90;99.90;;;;;;4999035;28;20088;-45
2022/07/01 08:16:09;;;;;;;14.90;10.30;;;16.90;99.90;;;;;;5001833;28;20038;-46
2022/07/01 08:18:35;;;;;;;19.08;11.77;;;17.00;99.90;;;;;;4987190;28;20052;-47
2022/07/01 08:21:01;;;;;;;16.60;10.88;;;17.00;99.90;;;;;;5006490;28;20491;-44
2022/07/01 08:23:27;;;;;;;15.18;10.90;;;17.10;99.90;;;;;;5002633;28;20578;-44
2022/07/01 08:25:53;;;;;;;16.67;10.50;;;17.30;99.90;;;;;;4988825;28;20065;-44
2022/07/01 08:28:19;;;;;;;15.40;10.57;;;17.40;99.90;;;;;;4998741;28;20088;-44
2022/07/01 08:30:45;;;;;;;15.20;9.77;;;17.60;99.90;;;;;;4970679;28;20474;-43
2022/07/01 08:33:11;;;;;;;10.88;6.82;;;17.70;99.90;;;;;;5004872;28;20112;-44
2022/07/01 08:35:37;;;;;;;12.60;7.35;;;17.70;99.90;;;;;;5000998;28;20042;-41
2022/07/01 08:38:03;;;;;;;16.30;8.88;;;17.70;99.90;;;;;;5004459;28;20518;-42
2022/07/01 08:40:30;;;;;;;12.13;7.40;;;17.80;99.90;;;;;;5001938;28;20386;-44
2022/07/01 08:43:01;;;;;;;13.52;8.35;;;17.70;99.90;;;;;;5006647;28;20667;-47
2022/07/01 08:45:32;;;;;;;11.68;7.35;;;17.70;99.90;;;;;;5006150;28;20572;-45
2022/07/01 08:48:00;;;;;;;12.25;7.78;;;17.70;99.90;;;;;;5007180;28;20046;-45
2022/07/01 08:50:38;;;;;;;12.30;6.07;;;17.80;99.90;;;;;;5006020;28;20038;-44
2022/07/01 08:53:05;;;;;;;8.82;6.35;;;17.90;99.90;;;;;;4968053;28;20077;-46
2022/07/01 08:55:31;;;;;;;10.90;7.07;;;17.90;99.90;;;;;;5006034;28;20038;-42
2022/07/01 08:57:58;;;;;;;11.60;6.43;;;17.70;99.90;;;;;;5003525;28;20038;-43
2022/07/01 09:00:33;;;;;;;8.50;5.38;;;17.70;99.90;;;;;;5003432;28;20046;-44
2022/07/01 09:03:00;;;;;;;10.75;6.38;;;17.80;99.90;;;;;;5005757;28;20157;-45
2022/07/01 09:05:27;;;;;;;11.93;6.40;;;18.00;99.90;;;;;;4983443;28;20049;-44
2022/07/01 09:08:01;;;;;;;9.40;6.47;;;18.20;99.90;;;;;;4987196;28;20298;-43
2022/07/01 09:10:30;;;;;;;9.65;6.18;;;18.50;99.90;;;;;;4999140;28;20570;-44
2022/07/01 09:12:56;;;;;;;9.85;6.50;;;18.70;99.90;;;;;;5007175;28;20121;-44
2022/07/01 09:15:30;;;;;;;10.30;6.10;;;18.80;99.90;;;;;;5003400;28;20148;-45
2022/07/01 09:18:05;;;;;;;12.90;6.40;;;18.80;99.90;;;;;;4986385;28;20085;-43
2022/07/01 09:20:34;;;;;;;9.52;5.82;;;18.90;99.90;;;;;;5007278;28;20060;-45
2022/07/01 09:23:10;;;;;;;6.80;5.22;;;18.90;99.90;;;;;;5010481;28;20054;-45
2022/07/01 09:25:49;;;;;;;8.15;5.97;;;18.80;99.90;;;;;;5007967;28;20155;-45
2022/07/01 09:28:16;;;;;;;10.05;6.45;;;18.90;99.90;;;;;;5011158;28;20045;-46
2022/07/01 09:30:45;;;;;;;9.10;5.57;;;18.90;99.90;;;;;;4993086;28;20486;-48
2022/07/01 09:33:23;;;;;;;6.85;5.03;;;18.90;99.90;;;;;;5003170;28;20030;-42
2022/07/01 09:35:49;;;;;;;8.32;5.43;;;19.10;99.90;;;;;;5003311;28;20064;-46
2022/07/01 09:38:19;;;;;;;9.68;5.65;;;19.20;99.90;;;;;;5006818;28;20042;-44
2022/07/01 09:40:57;;;;;;;7.35;4.72;;;19.30;99.90;;;;;;5008209;28;20078;-46
2022/07/01 09:43:25;;;;;;;12.35;4.60;;;19.50;98.80;;;;;;4986398;28;20069;-43
2022/07/01 09:46:04;;;;;;;9.90;4.28;;;19.50;98.50;;;;;;5007994;28;20467;-44
2022/07/01 09:48:32;;;;;;;5.97;3.60;;;19.50;96.80;;;;;;5003505;28;20125;-48
2022/07/01 09:50:59;;;;;;;6.88;3.30;;;19.50;97.90;;;;;;4986148;28;20522;-44
2022/07/01 09:53:25;;;;;;;9.70;3.40;;;19.50;97.60;;;;;;5006399;28;20498;-45
2022/07/01 09:55:52;;;;;;;4.82;3.20;;;19.70;98.00;;;;;;5005256;28;20535;-45
2022/07/01 09:58:18;;;;;;;4.72;3.10;;;19.90;96.20;;;;;;5006657;28;20494;-49
2022/07/01 10:00:44;;;;;;;6.55;2.75;;;20.00;96.60;;;;;;4997633;28;20071;-44
2022/07/01 10:03:11;;;;;;;5.25;2.53;;;20.00;95.40;;;;;;5004163;28;20042;-44
2022/07/01 10:05:45;;;;;;;5.13;2.60;;;20.00;95.00;;;;;;5007848;28;20050;-44
2022/07/01 10:08:23;;;;;;;3.15;1.90;;;20.20;94.50;;;;;;5004514;28;20423;-43
2022/07/01 10:11:16;;;;;;;6.20;2.10;;;20.20;93.20;;;;;;5004555;28;20087;-44
2022/07/01 10:13:42;;;;;;;5.03;2.20;;;20.10;93.10;;;;;;5007293;28;20038;-47
2022/07/01 10:16:09;;;;;;;7.85;1.92;;;20.30;92.90;;;;;;5002249;28;20050;-43
2022/07/01 10:18:35;;;;;;;5.55;1.60;;;20.50;92.00;;;;;;5006585;28;20042;-44
2022/07/01 10:21:03;;;;;;;6.38;2.22;;;20.60;90.80;;;;;;5004562;28;20129;-43
2022/07/01 10:23:43;;;;;;;5.97;2.20;;;20.60;91.10;;;;;;4970518;28;20506;-43
2022/07/01 10:26:11;;;;;;;5.93;1.70;;;20.70;90.90;;;;;;5004835;28;20089;-43
2022/07/01 10:28:49;;;;;;;4.88;1.35;;;20.50;89.90;;;;;;4991371;28;20060;-45
2022/07/01 10:31:18;;;;;;;3.78;1.60;;;20.40;90.10;;;;;;5004626;28;20141;-44
2022/07/01 10:33:48;;;;;;;4.82;1.10;;;20.40;91.10;;;;;;4988534;28;20417;-46
2022/07/01 10:36:21;;;;;;;3.97;2.25;;;20.60;91.30;;;;;;4988869;28;20045;-44
2022/07/01 10:39:08;;;;;;;4.13;1.00;;;20.60;86.00;;;;;;5007287;28;20652;-44
2022/07/01 10:41:52;;;;;;;6.15;1.00;;;20.70;80.30;;;;;;5005396;28;20042;-45
2022/07/01 10:44:17;;;;;;;4.50;0.75;;;20.70;85.20;;;;;;5000522;28;20129;-44
2022/07/01 10:46:49;;;;;;;2.72;1.02;;;20.50;82.10;;;;;;5006625;28;20050;-45
2022/07/01 10:49:18;;;;;;;2.47;1.10;;;20.30;85.90;;;;;;5002628;28;20087;-43
2022/07/01 10:51:57;;;;;;;5.43;1.02;;;20.20;87.60;;;;;;5006778;28;20038;-44
2022/07/01 10:54:35;;;;;;;3.72;1.10;;;19.90;87.10;;;;;;5007307;28;20057;-43
2022/07/01 10:57:19;;;;;;;3.25;1.05;;;19.60;88.40;;;;;;5002538;28;20038;-48
2022/07/01 10:59:49;;;;;;;7.07;1.38;;;19.40;90.10;;;;;;5004531;28;20081;-46
2022/07/01 11:02:26;;;;;;;4.30;1.15;;;19.30;91.30;;;;;;5004402;28;20651;-42
2022/07/01 11:04:55;;;;;;;4.35;1.20;;;19.20;92.00;;;;;;5004695;28;20025;-43
2022/07/01 11:07:23;;;;;;;3.15;1.13;;;19.20;92.50;;;;;;4999119;28;20041;-43
2022/07/01 11:09:49;;;;;;;3.17;1.05;;;19.20;92.70;;;;;;5006398;28;20379;-46
2022/07/01 11:12:16;;;;;;;3.38;1.13;;;19.20;92.70;;;;;;5000696;28;20034;-44
2022/07/01 11:14:42;;;;;;;4.25;1.08;;;19.20;93.20;;;;;;5006630;28;20042;-43
2022/07/01 11:17:10;;;;;;;4.47;0.80;;;19.40;93.60;;;;;;5009843;28;20589;-44
2022/07/01 11:19:36;;;;;;;6.97;1.00;;;19.50;93.20;;;;;;5008167;28;20107;-46
2022/07/01 11:22:05;;;;;;;1.63;0.85;;;19.60;92.40;;;;;;5006222;28;20038;-43
2022/07/01 11:24:31;;;;;;;4.65;1.02;;;19.60;91.70;;;;;;5005868;28;20050;-43
2022/07/01 11:27:06;;;;;;;2.53;0.90;;;19.70;91.30;;;;;;5005632;28;20105;-43
2022/07/01 11:29:32;;;;;;;4.65;0.88;;;20.00;89.80;;;;;;5006478;28;21932;-42
2022/07/01 11:31:58;;;;;;;4.95;0.75;;;20.20;90.00;;;;;;5004348;28;20763;-42
2022/07/01 11:34:27;;;;;;;3.08;0.75;;;20.40;87.00;;;;;;5006212;28;20038;-43
2022/07/01 11:39:41;;;;;;;2.55;0.80;;;20.50;86.10;;;;;;4999073;28;20132;-42
2022/07/01 11:42:08;;;;;;;2.67;0.80;;;20.70;86.00;;;;;;5008730;28;20045;-46
2022/07/01 11:44:42;;;;;;;2.88;1.10;;;20.60;84.40;;;;;;5006518;28;20050;-43
2022/07/01 11:47:11;;;;;;;2.20;0.70;;;20.70;83.90;;;;;;5004943;28;20049;-44
2022/07/01 11:49:57;;;;;;;3.25;0.80;;;20.70;86.60;;;;;;5007582;28;20048;-47
2022/07/01 11:52:23;;;;;;;2.95;0.80;;;20.90;87.90;;;;;;5004530;28;20491;-44
2022/07/01 11:54:52;;;;;;;1.63;0.90;;;20.90;87.20;;;;;;5005211;28;20042;-48
2022/07/01 11:57:28;;;;;;;3.08;0.70;;;20.80;87.80;;;;;;5008165;28;20034;-47
2022/07/01 11:59:55;;;;;;;2.13;0.50;;;20.60;89.00;;;;;;5007276;28;20132;-49
2022/07/01 12:02:22;;;;;;;3.80;0.60;;;20.30;89.10;;;;;;5007285;28;20103;-44
2022/07/01 12:04:49;;;;;;;4.65;0.80;;;20.20;90.40;;;;;;5005993;28;20510;-48
2022/07/01 12:07:21;;;;;;;1.65;0.50;;;20.00;88.50;;;;;;5004243;28;20749;-45
2022/07/01 12:09:48;;;;;;;2.03;0.52;;;20.20;89.90;;;;;;5007310;28;20128;-45
2022/07/01 12:12:18;;;;;;;3.20;0.70;;;20.20;89.80;;;;;;5002490;28;20469;-44
2022/07/01 12:14:56;;;;;;;1.73;0.60;;;20.20;89.00;;;;;;5003854;28;20045;-45
2022/07/01 12:17:23;;;;;;;1.90;0.52;;;20.20;88.90;;;;;;5005705;28;20033;-43
2022/07/01 12:19:49;;;;;;;4.75;0.73;;;20.30;89.20;;;;;;5004048;28;20053;-43
2022/07/01 12:22:20;;;;;;;4.07;0.50;;;20.50;88.30;;;;;;5006074;28;20073;-44
2022/07/01 12:24:47;;;;;;;3.22;0.40;;;20.70;88.00;;;;;;5007211;28;20053;-46
2022/07/01 12:27:14;;;;;;;1.17;0.40;;;20.90;87.70;;;;;;5008512;28;20096;-44
2022/07/01 12:29:45;;;;;;;3.75;0.70;;;20.80;85.90;;;;;;5007253;28;20645;-48
2022/07/01 12:32:13;;;;;;;3.50;0.43;;;20.80;85.90;;;;;;4987983;28;20048;-44
2022/07/01 12:34:42;;;;;;;5.15;0.65;;;20.70;84.60;;;;;;5003789;28;20049;-44
2022/07/01 12:37:20;;;;;;;3.88;0.50;;;20.50;81.80;;;;;;5009187;28;20128;-44
2022/07/01 12:39:48;;;;;;;2.20;0.50;;;20.30;85.10;;;;;;5007254;28;20041;-45
2022/07/01 12:42:30;;;;;;;4.70;0.73;;;20.30;85.50;;;;;;4998612;28;20105;-45
2022/07/01 12:45:04;;;;;;;2.70;0.65;;;20.30;83.80;;;;;;5006178;28;20547;-44
2022/07/01 12:47:39;;;;;;;5.40;0.90;;;20.40;84.00;;;;;;5007939;28;20038;-44
2022/07/01 12:50:20;;;;;;;2.85;0.63;;;20.60;84.50;;;;;;5002337;28;20049;-43
2022/07/01 12:53:06;;;;;;;2.25;0.47;;;20.80;82.30;;;;;;5007820;28;20410;-45
2022/07/01 12:55:35;;;;;;;2.40;0.60;;;21.10;80.60;;;;;;4990116;28;20525;-46
2022/07/01 12:58:04;;;;;;;2.92;0.68;;;21.30;80.60;;;;;;4996672;28;20054;-54
2022/07/01 13:00:30;;;;;;;3.67;0.63;;;21.40;79.90;;;;;;5006939;28;20899;-47